• Join FlightAware (Why Join?)
  • Login
  • US Flag 
02:08PM EDT


 

Airport Tracker/Info


-or-


 

Live Flight TrackerFlight Track Log ✈ CCA4486 ✈ 29-Sep-2013 ✈ ZUJZ / JZH - ZUUU / CTU

Flight Track Log - Related Links

Times and Time Zones

All times are in EDT time to prevent confusion due to time zone crossing. See the CCA4486 flight status page for this flight to view local times or setup timezone preferences in your user account.

Time Position Orientation Groundspeed Altitude Reporting Facility
EDT Latitude Longitude Course Direction KTS MPH feet Rate Location/Type
08:57AM 32.6593 103.7064 174° South  Level Estimated
08:58AM 32.6099 103.7123 174° South  Level Estimated
08:59AM 32.5605 103.7181 174° South  Level Estimated
09:00AM 32.5111 103.7240 174° South  Level Estimated
09:01AM 32.4617 103.7298 174° South  Level Estimated
09:02AM 32.4123 103.7356 174° South  Level Estimated
09:03AM 32.3628 103.7414 174° South  Level Estimated
09:04AM 32.3134 103.7472 174° South  Level Estimated
09:05AM 32.2640 103.7530 174° South  Level Estimated
09:06AM 32.2146 103.7588 174° South  Level Estimated
09:06AM 32.4760 104.2550 174° South 376 433 24,600  Level FlightAware
09:06AM 32.4170 104.2580 178° South 374 430 24,600  Level FlightAware
09:07AM 32.3510 104.2610 178° South 376 433 24,600  Level FlightAware
09:07AM 32.2950 104.2640 177° South 379 436 24,600  Level FlightAware
09:08AM 32.2290 104.2680 177° South 375 432 24,600  Level FlightAware
09:09AM 32.1700 104.2710 178° South 376 433 24,600  Level FlightAware
09:09AM 32.1040 104.2740 178° South 377 434 24,600  Level FlightAware
09:10AM 32.0440 104.2730 181° South 396 456 24,600  Level FlightAware
09:10AM 31.9730 104.2600 189° South 411 473 24,600  Level FlightAware
09:11AM 31.9240 104.2510 189° South 407 468 24,600  Level FlightAware
09:12AM 31.8180 104.2470 182° South 414 476 24,600  Level FlightAware
09:13AM 31.7610 104.2520 176° South 412 474 24,600  Level FlightAware
09:13AM 31.6690 104.2580 177° South 417 480 24,600 -240 Level FlightAware
09:14AM 31.5780 104.2500 184° South 418 481 24,300 -600 Descending FlightAware
09:14AM 31.5190 104.2180 205° Southwest 412 474 23,800 -960 Descending FlightAware
09:15AM 31.4570 104.1810 207° Southwest 399 459 23,200 -960 Descending FlightAware
09:16AM 31.4000 104.1460 208° Southwest 395 455 22,700 -660 Descending FlightAware
09:16AM 31.3640 104.1300 201° Southwest 403 464 22,600 -120 Descending FlightAware
09:17AM 31.3020 104.1330 178° South 411 473 22,600  Level FlightAware
09:17AM 31.2580 104.1530 159° South 416 479 22,600  Level FlightAware
09:18AM 31.1950 104.1920 152° Southeast 433 498 22,600 -420 Level FlightAware
09:18AM 31.1430 104.2250 151° Southeast 433 498 22,200 -1,260 Descending FlightAware
09:19AM 31.0730 104.2680 152° Southeast 429 494 21,200 -1,560 Descending FlightAware
09:19AM 31.0100 104.3070 152° Southeast 417 480 20,300 -1,500 Descending FlightAware
09:20AM 30.9560 104.3400 152° Southeast 405 466 19,500 -1,500 Descending FlightAware
09:20AM 30.8960 104.3760 153° Southeast 393 452 18,600 -1,500 Descending FlightAware
09:21AM 30.8370 104.4050 157° South 390 449 17,700 -1,440 Descending FlightAware
09:22AM 30.7830 104.4250 162° South 386 444 17,000 -1,680 Descending FlightAware
09:22AM 30.7180 104.4500 162° South 376 433 15,800 -2,040 Descending FlightAware
09:23AM 30.6610 104.4690 164° South 365 420 14,600 -1,860 Descending FlightAware
09:23AM 30.6420 104.4690 180° South 355 409 14,400 -1,020 Descending FlightAware
09:23AM 30.6140 104.4600 195° South 341 392 14,100 -1,020 Descending FlightAware
09:24AM 30.5990 104.4470 217° Southwest 334 384 13,900 -1,080 Descending FlightAware
09:24AM 30.5840 104.4260 230° Southwest 326 375 13,600 -1,020 Descending FlightAware
09:24AM 30.5670 104.3760 248° West 309 356 13,100 -960 Descending FlightAware
09:25AM 30.5480 104.3210 248° West 293 337 12,500 -1,020 Descending FlightAware
09:25AM 30.5310 104.2730 248° West 281 323 11,900 -660 Descending FlightAware
09:26AM 30.5150 104.2250 249° West 254 292 11,800 -180 Descending FlightAware
09:26AM 30.5090 104.2100 245° Southwest 242 278 11,800  Level FlightAware
09:27AM 30.4950 104.1980 216° Southwest 232 267 11,800  Level FlightAware
09:27AM 30.4620 104.1830 201° Southwest 234 269 11,800 -180 Level FlightAware
09:28AM 30.4270 104.1660 203° Southwest 233 268 11,600 -780 Descending FlightAware
09:28AM 30.3910 104.1490 202° Southwest 230 265 10,900 -1,140 Descending FlightAware
09:29AM 30.3560 104.1330 202° Southwest 223 257 10,300 -1,080 Descending FlightAware
09:29AM 30.3370 104.1240 202° Southwest 221 254 9,900 -1,200 Descending FlightAware
09:30AM 30.3120 104.1130 201° Southwest 218 251 9,400 -1,140 Descending FlightAware
09:30AM 30.2970 104.1060 202° Southwest 217 250 9,100 -1,200 Descending FlightAware
09:30AM 30.2780 104.0970 202° Southwest 214 246 8,700 -900 Descending FlightAware
09:31AM 30.2580 104.0870 203° Southwest 205 236 8,500 -660 Descending FlightAware
09:31AM 30.2490 104.0760 227° Southwest 208 239 8,300 -1,080 Descending FlightAware
09:31AM 30.2470 104.0720 240° Southwest 216 249 8,200 -1,200 Descending FlightAware
09:31AM 30.2460 104.0630 263° West 224 258 8,100 -660 Descending FlightAware
09:31AM 30.2510 104.0420 285° West 234 269 7,900 -420 Descending FlightAware
09:32AM 30.2660 104.0050 295° West 235 270 7,800 -360 Descending FlightAware
09:32AM 30.2760 103.9790 294° West 223 257 7,600 -840 Descending FlightAware
09:33AM 30.2820 103.9560 287° West 214 246 7,200 -1,080 Descending FlightAware
09:33AM 30.2870 103.9340 285° West 206 237 6,900 -780 Descending FlightAware
09:33AM 30.2920 103.9130 285° West 195 224 6,700 -1,020 Descending FlightAware
09:34AM 30.2960 103.8900 281° West 190 219 6,200 -1,380 Descending FlightAware
09:34AM 30.3030 103.8700 292° West 200 230 5,700 -1,440 Descending FlightAware
09:34AM 30.3070 103.8660 319° Northwest 205 236 5,600 -1,680 Descending FlightAware
09:34AM 30.3120 103.8630 333° Northwest 207 238 5,400 -1,320 Descending FlightAware
09:34AM 30.3180 103.8610 344° North 207 238 5,300 -900 Descending FlightAware
09:35AM 30.3380 103.8570 350° North 201 231 5,000 -960 Descending FlightAware
09:35AM 30.3590 103.8630 14° North 198 228 4,600 -960 Descending FlightAware
09:35AM 30.3750 103.8700 21° North 187 215 4,300 -600 Descending FlightAware
09:36AM 30.3920 103.8770 20° North 172 198 4,200 -600 Descending FlightAware
09:36AM 30.4070 103.8840 22° Northeast 170 196 3,900 -1,020 Descending FlightAware
09:36AM 30.4200 103.8900 22° Northeast 166 191 3,600 -900 Descending FlightAware
09:37AM 30.4360 103.8980 23° Northeast 154 177 3,300 -780 Descending FlightAware
09:37AM 30.4460 103.9020 19° North 143 165 3,100 -660 Descending FlightAware
09:37AM 30.4570 103.9080 25° Northeast 129 148 2,900 -720 Descending FlightAware
09:38AM 30.4700 103.9140 22° Northeast 131 151 2,600 -720 Descending FlightAware
09:38AM 30.4820 103.9190 20° North 127 146 2,400 -600 Descending FlightAware
09:38AM 30.4930 103.9250 25° Northeast 126 145 2,200 -600 Descending FlightAware
09:39AM 30.5040 103.9290 17° North 126 145 2,000 -780 Descending FlightAware
09:39AM 30.5150 103.9350 25° Northeast 129 148 1,700 -840 Descending FlightAware
09:39AM 30.5210 103.9370 16° North 129 148 1,600 -180 Descending FlightAware
09:40AM 30.5330 103.9430 23° Northeast 129 148 1,600  Level FlightAware